Princeton Junction, NJ (08550)

8:24 AM EDT on October 30, 2014 (GMT -0400)
PPPL | Change Station
CLOSE
Current Station
Personal Weather Station
Location: Princeton, NJ
Elevation: 108 ft
Nearby Weather Stations

Elev 108 ft 40.35 °N, 74.60 °W | Updated 20 seconds ago

Fog
Fog
44.5 °F
Feels Like 44 °F
N
0.0
Wind Variable Wind from SSW
Gusts 0.0 mph

Today
High -- | Low -- °F
--% Chance of Precip.
Yesterday
High -- | Low -- °F
Precip. -- in
7:25 AM 5:57 PM
Waxing Crescent, 43% visible
Pressure 30.00 in
Visibility 4.0 miles
Clouds Few 100 ft
Windchill 44 °F
Dew Point 44 °F
Humidity 98%
Rainfall 0.00 in
Snow Depth Not available.
UV 0 out of 12
Pollen .90 out of 12
Air Quality Not available.
Flu Activity Not available.
SPECI KTTN 301203Z 30003KT 4SM BR FEW001 06/05 A3000 RMK AO2 T00610050

More Conditions Fewer Conditions

Pressure 30.00 in
Visibility 4.0 miles
Clouds Few 100 ft
Windchill 44 °F
Dew Point 44 °F
Humidity 98%
Rainfall 0.00 in
Snow Depth Not available.
UV 0 out of 12
Pollen .90 out of 12
Air Quality Not available.
Flu Activity Not available.
SPECI KTTN 301203Z 30003KT 4SM BR FEW001 06/05 A3000 RMK AO2 T00610050

More Conditions Fewer Conditions

Nowcast | as of 7:58 am EDT on October 30, 2014

Patchy dense fog will continue to burn off as the morning wears on. Some areas may still see reduced visibilities under a half mile for a time this morning before conditions improve by late morning. Motorists should exercise caution for rapidly changing visibilities. Please allow extra time to reach your destination and use low beam headlights.

×

10-Day Weather Forecast

Almanac

Astronomy

Oct. 30, 2014 Rise Set
Actual Time
Civil Twilight
Nautical Twilight
Astronomical Twilight
Moon
Length of Visible Light
Length of Day
Tomorrow will be .
, % of the Moon is Illuminated

Today's Extremes

State Highs State Lows

Community

WunderPhotos

Upload Photos

1,766,351 photos uploaded!

WunderBlogs® & News

Nearby

Air Quality

  Air Quality AQ Index Pollutant
Not available.

Snow Depth

Station Depth Elevation

Earthquake Activity

City Distance Mag. Time & Date
Minimum magnitude displayed is 2.5.

Coastal Water Temperatures

Place Temperature

Nearby Weather Stations